sensor_id;sensor_type;location;lat;lon;timestamp;temperature;humidity
5055;DHT22;13829;48.990;8.346;2024-02-26T00:00:15;9.60;94.80
5055;DHT22;13829;48.990;8.346;2024-02-26T00:02:44;9.60;95.40
5055;DHT22;13829;48.990;8.346;2024-02-26T00:05:11;9.50;96.00
5055;DHT22;13829;48.990;8.346;2024-02-26T00:07:37;9.40;95.90
5055;DHT22;13829;48.990;8.346;2024-02-26T00:10:05;9.40;95.10
5055;DHT22;13829;48.990;8.346;2024-02-26T00:12:33;9.40;96.00
5055;DHT22;13829;48.990;8.346;2024-02-26T00:15:00;9.40;96.40
5055;DHT22;13829;48.990;8.346;2024-02-26T00:17:27;9.40;96.90
5055;DHT22;13829;48.990;8.346;2024-02-26T00:19:55;9.40;97.00
5055;DHT22;13829;48.990;8.346;2024-02-26T00:22:22;9.40;97.10
5055;DHT22;13829;48.990;8.346;2024-02-26T00:24:49;9.30;97.60
5055;DHT22;13829;48.990;8.346;2024-02-26T00:27:16;9.30;97.70
5055;DHT22;13829;48.990;8.346;2024-02-26T00:29:43;9.30;98.20
5055;DHT22;13829;48.990;8.346;2024-02-26T00:32:10;9.20;98.90
5055;DHT22;13829;48.990;8.346;2024-02-26T00:34:37;9.20;99.40
5055;DHT22;13829;48.990;8.346;2024-02-26T00:37:05;9.20;99.80
5055;DHT22;13829;48.990;8.346;2024-02-26T00:39:32;9.20;99.40
5055;DHT22;13829;48.990;8.346;2024-02-26T00:41:59;9.20;99.30
5055;DHT22;13829;48.990;8.346;2024-02-26T00:44:26;9.20;99.90
5055;DHT22;13829;48.990;8.346;2024-02-26T00:46:53;9.20;99.90
5055;DHT22;13829;48.990;8.346;2024-02-26T00:49:23;9.10;99.90
5055;DHT22;13829;48.990;8.346;2024-02-26T00:51:50;9.10;99.90
5055;DHT22;13829;48.990;8.346;2024-02-26T00:54:18;9.00;99.90
5055;DHT22;13829;48.990;8.346;2024-02-26T00:56:45;9.00;99.90
5055;DHT22;13829;48.990;8.346;2024-02-26T00:59:12;9.00;99.90
5055;DHT22;13829;48.990;8.346;2024-02-26T01:01:38;9.10;99.90
5055;DHT22;13829;48.990;8.346;2024-02-26T01:04:05;9.10;99.90
5055;DHT22;13829;48.990;8.346;2024-02-26T01:06:32;9.20;99.90
5055;DHT22;13829;48.990;8.346;2024-02-26T01:08:59;9.20;99.90
5055;DHT22;13829;48.990;8.346;2024-02-26T01:11:27;9.20;99.90
5055;DHT22;13829;48.990;8.346;2024-02-26T01:13:54;9.20;99.90
5055;DHT22;13829;48.990;8.346;2024-02-26T01:16:22;9.30;99.90
5055;DHT22;13829;48.990;8.346;2024-02-26T01:18:49;9.30;99.90
5055;DHT22;13829;48.990;8.346;2024-02-26T01:21:16;9.50;99.90
5055;DHT22;13829;48.990;8.346;2024-02-26T01:23:43;9.30;99.90
5055;DHT22;13829;48.990;8.346;2024-02-26T01:26:10;9.30;99.90
5055;DHT22;13829;48.990;8.346;2024-02-26T01:28:39;9.40;99.90
5055;DHT22;13829;48.990;8.346;2024-02-26T01:31:06;9.50;99.90
5055;DHT22;13829;48.990;8.346;2024-02-26T01:33:34;9.50;99.90
5055;DHT22;13829;48.990;8.346;2024-02-26T01:36:01;9.60;99.90
5055;DHT22;13829;48.990;8.346;2024-02-26T01:38:28;9.70;99.90
5055;DHT22;13829;48.990;8.346;2024-02-26T01:40:54;9.80;99.90
5055;DHT22;13829;48.990;8.346;2024-02-26T01:43:22;10.00;99.90
5055;DHT22;13829;48.990;8.346;2024-02-26T01:45:50;10.30;99.90
5055;DHT22;13829;48.990;8.346;2024-02-26T01:48:17;10.30;99.90
5055;DHT22;13829;48.990;8.346;2024-02-26T01:50:44;10.20;99.90
5055;DHT22;13829;48.990;8.346;2024-02-26T01:53:11;10.30;99.90
5055;DHT22;13829;48.990;8.346;2024-02-26T01:55:39;10.40;99.90
5055;DHT22;13829;48.990;8.346;2024-02-26T01:58:07;10.50;99.90
5055;DHT22;13829;48.990;8.346;2024-02-26T02:00:34;10.40;99.90
5055;DHT22;13829;48.990;8.346;2024-02-26T02:03:04;10.20;99.90
5055;DHT22;13829;48.990;8.346;2024-02-26T02:05:31;10.10;99.90
5055;DHT22;13829;48.990;8.346;2024-02-26T02:08:00;10.00;99.90
5055;DHT22;13829;48.990;8.346;2024-02-26T02:10:29;10.00;99.90
5055;DHT22;13829;48.990;8.346;2024-02-26T02:12:55;10.00;99.90
5055;DHT22;13829;48.990;8.346;2024-02-26T02:15:23;9.90;99.90
5055;DHT22;13829;48.990;8.346;2024-02-26T02:17:50;9.80;99.90
5055;DHT22;13829;48.990;8.346;2024-02-26T02:20:18;9.80;99.90
5055;DHT22;13829;48.990;8.346;2024-02-26T02:22:47;9.70;99.90
5055;DHT22;13829;48.990;8.346;2024-02-26T02:25:14;9.60;99.90
5055;DHT22;13829;48.990;8.346;2024-02-26T02:27:42;9.50;99.90
5055;DHT22;13829;48.990;8.346;2024-02-26T02:30:11;9.40;99.90
5055;DHT22;13829;48.990;8.346;2024-02-26T02:32:40;9.20;99.90
5055;DHT22;13829;48.990;8.346;2024-02-26T02:35:07;9.00;99.90
5055;DHT22;13829;48.990;8.346;2024-02-26T02:37:35;8.90;99.90
5055;DHT22;13829;48.990;8.346;2024-02-26T02:40:05;8.90;99.90
5055;DHT22;13829;48.990;8.346;2024-02-26T02:42:32;8.80;99.90
5055;DHT22;13829;48.990;8.346;2024-02-26T02:44:59;8.90;99.90
5055;DHT22;13829;48.990;8.346;2024-02-26T02:47:26;8.90;99.90
5055;DHT22;13829;48.990;8.346;2024-02-26T02:49:53;8.90;99.90
5055;DHT22;13829;48.990;8.346;2024-02-26T02:52:20;8.80;99.90
5055;DHT22;13829;48.990;8.346;2024-02-26T02:54:47;8.60;99.90
5055;DHT22;13829;48.990;8.346;2024-02-26T02:57:15;8.60;99.90
5055;DHT22;13829;48.990;8.346;2024-02-26T02:59:43;8.50;99.90
5055;DHT22;13829;48.990;8.346;2024-02-26T03:02:09;8.60;99.90
5055;DHT22;13829;48.990;8.346;2024-02-26T03:04:36;8.50;99.90
5055;DHT22;13829;48.990;8.346;2024-02-26T03:07:03;8.40;99.90
5055;DHT22;13829;48.990;8.346;2024-02-26T03:09:30;8.30;99.90
5055;DHT22;13829;48.990;8.346;2024-02-26T03:11:57;8.30;99.90
5055;DHT22;13829;48.990;8.346;2024-02-26T03:14:26;8.30;99.90
5055;DHT22;13829;48.990;8.346;2024-02-26T03:16:54;8.30;99.90
5055;DHT22;13829;48.990;8.346;2024-02-26T03:19:21;8.20;99.90
5055;DHT22;13829;48.990;8.346;2024-02-26T03:21:48;8.30;99.90
5055;DHT22;13829;48.990;8.346;2024-02-26T03:24:15;8.30;99.90
5055;DHT22;13829;48.990;8.346;2024-02-26T03:26:42;8.30;99.90
5055;DHT22;13829;48.990;8.346;2024-02-26T03:29:09;8.30;99.90
5055;DHT22;13829;48.990;8.346;2024-02-26T03:31:37;8.20;99.90
5055;DHT22;13829;48.990;8.346;2024-02-26T03:34:04;8.30;99.90
5055;DHT22;13829;48.990;8.346;2024-02-26T03:36:31;8.40;99.90
5055;DHT22;13829;48.990;8.346;2024-02-26T03:38:58;8.50;99.90
5055;DHT22;13829;48.990;8.346;2024-02-26T03:41:25;8.50;99.90
5055;DHT22;13829;48.990;8.346;2024-02-26T03:43:51;8.50;99.90
5055;DHT22;13829;48.990;8.346;2024-02-26T03:46:18;8.60;99.90
5055;DHT22;13829;48.990;8.346;2024-02-26T03:48:46;8.70;99.90
5055;DHT22;13829;48.990;8.346;2024-02-26T03:51:13;8.70;99.90
5055;DHT22;13829;48.990;8.346;2024-02-26T03:53:40;8.70;99.90
5055;DHT22;13829;48.990;8.346;2024-02-26T03:56:08;8.70;99.90
5055;DHT22;13829;48.990;8.346;2024-02-26T03:58:37;8.70;99.90
5055;DHT22;13829;48.990;8.346;2024-02-26T04:01:06;8.50;99.90
5055;DHT22;13829;48.990;8.346;2024-02-26T04:03:33;8.40;99.90
5055;DHT22;13829;48.990;8.346;2024-02-26T04:06:02;8.30;99.90
5055;DHT22;13829;48.990;8.346;2024-02-26T04:08:29;8.30;99.90
5055;DHT22;13829;48.990;8.346;2024-02-26T04:10:56;8.20;99.90
5055;DHT22;13829;48.990;8.346;2024-02-26T04:13:23;8.20;99.90
5055;DHT22;13829;48.990;8.346;2024-02-26T04:15:50;8.30;99.90
5055;DHT22;13829;48.990;8.346;2024-02-26T04:18:17;8.30;99.90
5055;DHT22;13829;48.990;8.346;2024-02-26T04:20:44;8.30;99.90
5055;DHT22;13829;48.990;8.346;2024-02-26T04:23:12;8.40;99.90
5055;DHT22;13829;48.990;8.346;2024-02-26T04:25:39;8.60;99.90
5055;DHT22;13829;48.990;8.346;2024-02-26T04:28:06;8.50;99.90
5055;DHT22;13829;48.990;8.346;2024-02-26T04:30:33;8.50;99.90
5055;DHT22;13829;48.990;8.346;2024-02-26T04:33:00;8.50;99.90
5055;DHT22;13829;48.990;8.346;2024-02-26T04:35:26;8.80;99.90
5055;DHT22;13829;48.990;8.346;2024-02-26T04:37:53;8.60;99.90
5055;DHT22;13829;48.990;8.346;2024-02-26T04:40:22;8.70;99.90
5055;DHT22;13829;48.990;8.346;2024-02-26T04:42:49;8.60;99.90
5055;DHT22;13829;48.990;8.346;2024-02-26T04:45:16;8.60;99.90
5055;DHT22;13829;48.990;8.346;2024-02-26T04:47:43;8.60;99.90
5055;DHT22;13829;48.990;8.346;2024-02-26T04:50:10;8.50;99.90
5055;DHT22;13829;48.990;8.346;2024-02-26T04:52:37;8.50;99.90
5055;DHT22;13829;48.990;8.346;2024-02-26T04:55:04;8.70;99.90
5055;DHT22;13829;48.990;8.346;2024-02-26T04:57:32;8.50;99.90
5055;DHT22;13829;48.990;8.346;2024-02-26T04:59:59;8.50;99.90
5055;DHT22;13829;48.990;8.346;2024-02-26T05:02:26;8.50;99.90
5055;DHT22;13829;48.990;8.346;2024-02-26T05:04:55;8.50;99.90
5055;DHT22;13829;48.990;8.346;2024-02-26T05:07:23;8.50;99.90
5055;DHT22;13829;48.990;8.346;2024-02-26T05:09:50;8.50;99.90
5055;DHT22;13829;48.990;8.346;2024-02-26T05:12:17;8.50;99.90
5055;DHT22;13829;48.990;8.346;2024-02-26T05:14:45;8.50;99.90
5055;DHT22;13829;48.990;8.346;2024-02-26T05:17:12;8.50;99.90
5055;DHT22;13829;48.990;8.346;2024-02-26T05:19:39;8.40;99.90
5055;DHT22;13829;48.990;8.346;2024-02-26T05:22:06;8.40;99.90
5055;DHT22;13829;48.990;8.346;2024-02-26T05:24:33;8.40;99.90
5055;DHT22;13829;48.990;8.346;2024-02-26T05:27:00;8.40;99.90
5055;DHT22;13829;48.990;8.346;2024-02-26T05:29:27;8.40;99.90
5055;DHT22;13829;48.990;8.346;2024-02-26T05:31:55;8.50;99.90
5055;DHT22;13829;48.990;8.346;2024-02-26T05:34:22;8.50;99.90
5055;DHT22;13829;48.990;8.346;2024-02-26T05:36:49;8.50;99.90
5055;DHT22;13829;48.990;8.346;2024-02-26T05:39:16;8.50;99.90
5055;DHT22;13829;48.990;8.346;2024-02-26T05:41:43;8.60;99.90
5055;DHT22;13829;48.990;8.346;2024-02-26T05:44:11;8.50;99.90
5055;DHT22;13829;48.990;8.346;2024-02-26T05:46:40;8.50;99.90
5055;DHT22;13829;48.990;8.346;2024-02-26T05:49:08;8.50;99.90
5055;DHT22;13829;48.990;8.346;2024-02-26T05:51:35;8.40;99.90
5055;DHT22;13829;48.990;8.346;2024-02-26T05:54:02;8.40;99.90
5055;DHT22;13829;48.990;8.346;2024-02-26T05:56:29;8.30;99.90
5055;DHT22;13829;48.990;8.346;2024-02-26T05:58:56;8.30;99.90
5055;DHT22;13829;48.990;8.346;2024-02-26T06:01:23;8.30;99.90
5055;DHT22;13829;48.990;8.346;2024-02-26T06:03:51;8.40;99.90
5055;DHT22;13829;48.990;8.346;2024-02-26T06:06:19;8.20;99.90
5055;DHT22;13829;48.990;8.346;2024-02-26T06:08:48;8.20;99.90
5055;DHT22;13829;48.990;8.346;2024-02-26T06:11:15;8.20;99.90
5055;DHT22;13829;48.990;8.346;2024-02-26T06:13:42;8.10;99.90
5055;DHT22;13829;48.990;8.346;2024-02-26T06:16:09;8.20;99.90
5055;DHT22;13829;48.990;8.346;2024-02-26T06:18:36;8.20;99.90
5055;DHT22;13829;48.990;8.346;2024-02-26T06:21:03;8.10;99.90
5055;DHT22;13829;48.990;8.346;2024-02-26T06:23:32;8.10;99.90
5055;DHT22;13829;48.990;8.346;2024-02-26T06:25:59;8.10;99.90
5055;DHT22;13829;48.990;8.346;2024-02-26T06:28:26;8.10;99.90
5055;DHT22;13829;48.990;8.346;2024-02-26T06:30:55;8.10;99.90
5055;DHT22;13829;48.990;8.346;2024-02-26T06:33:22;8.20;99.90
5055;DHT22;13829;48.990;8.346;2024-02-26T06:35:49;8.20;99.90
5055;DHT22;13829;48.990;8.346;2024-02-26T06:38:16;8.30;99.90
5055;DHT22;13829;48.990;8.346;2024-02-26T06:40:46;8.30;99.90
5055;DHT22;13829;48.990;8.346;2024-02-26T06:43:13;8.30;99.90
5055;DHT22;13829;48.990;8.346;2024-02-26T06:45:40;8.30;99.90
5055;DHT22;13829;48.990;8.346;2024-02-26T06:48:07;8.40;99.90
5055;DHT22;13829;48.990;8.346;2024-02-26T06:50:34;8.40;99.90
5055;DHT22;13829;48.990;8.346;2024-02-26T06:53:01;8.50;99.90
5055;DHT22;13829;48.990;8.346;2024-02-26T06:55:28;8.40;99.90
5055;DHT22;13829;48.990;8.346;2024-02-26T06:57:56;8.50;99.90
5055;DHT22;13829;48.990;8.346;2024-02-26T07:00:24;8.60;99.90
5055;DHT22;13829;48.990;8.346;2024-02-26T07:02:51;8.60;99.90
5055;DHT22;13829;48.990;8.346;2024-02-26T07:05:18;8.60;99.90
5055;DHT22;13829;48.990;8.346;2024-02-26T07:07:45;8.70;99.90
5055;DHT22;13829;48.990;8.346;2024-02-26T07:10:12;8.80;99.90
5055;DHT22;13829;48.990;8.346;2024-02-26T07:12:42;8.60;99.90
5055;DHT22;13829;48.990;8.346;2024-02-26T07:15:11;8.60;99.90
5055;DHT22;13829;48.990;8.346;2024-02-26T07:17:38;8.60;99.90
5055;DHT22;13829;48.990;8.346;2024-02-26T07:20:08;8.70;99.90
5055;DHT22;13829;48.990;8.346;2024-02-26T07:22:35;8.70;99.90
5055;DHT22;13829;48.990;8.346;2024-02-26T07:25:03;8.70;99.90
5055;DHT22;13829;48.990;8.346;2024-02-26T07:27:33;8.70;99.90
5055;DHT22;13829;48.990;8.346;2024-02-26T07:30:00;8.80;99.90
5055;DHT22;13829;48.990;8.346;2024-02-26T07:32:28;9.00;99.90
5055;DHT22;13829;48.990;8.346;2024-02-26T07:34:55;9.00;99.90
5055;DHT22;13829;48.990;8.346;2024-02-26T07:37:22;9.10;99.90
5055;DHT22;13829;48.990;8.346;2024-02-26T07:39:50;8.90;99.90
5055;DHT22;13829;48.990;8.346;2024-02-26T07:42:19;8.90;99.90
5055;DHT22;13829;48.990;8.346;2024-02-26T07:44:45;9.00;99.90
5055;DHT22;13829;48.990;8.346;2024-02-26T07:47:12;8.90;99.90
5055;DHT22;13829;48.990;8.346;2024-02-26T07:49:41;8.90;99.90
5055;DHT22;13829;48.990;8.346;2024-02-26T07:52:08;9.00;99.90
5055;DHT22;13829;48.990;8.346;2024-02-26T07:54:35;9.00;99.90
5055;DHT22;13829;48.990;8.346;2024-02-26T07:57:02;9.10;99.90
5055;DHT22;13829;48.990;8.346;2024-02-26T07:59:31;9.10;99.90
5055;DHT22;13829;48.990;8.346;2024-02-26T08:01:58;9.20;99.90
5055;DHT22;13829;48.990;8.346;2024-02-26T08:04:28;9.20;99.90
5055;DHT22;13829;48.990;8.346;2024-02-26T08:06:57;9.20;99.90
5055;DHT22;13829;48.990;8.346;2024-02-26T08:09:24;9.20;99.90
5055;DHT22;13829;48.990;8.346;2024-02-26T08:11:51;9.20;99.90
5055;DHT22;13829;48.990;8.346;2024-02-26T08:14:18;9.20;99.90
5055;DHT22;13829;48.990;8.346;2024-02-26T08:16:45;9.20;99.90
5055;DHT22;13829;48.990;8.346;2024-02-26T08:19:12;9.20;99.90
5055;DHT22;13829;48.990;8.346;2024-02-26T08:21:40;9.30;99.90
5055;DHT22;13829;48.990;8.346;2024-02-26T08:24:09;9.40;99.90
5055;DHT22;13829;48.990;8.346;2024-02-26T08:26:36;9.60;99.90
5055;DHT22;13829;48.990;8.346;2024-02-26T08:29:03;9.70;99.90
5055;DHT22;13829;48.990;8.346;2024-02-26T08:31:30;9.90;99.90
5055;DHT22;13829;48.990;8.346;2024-02-26T08:33:57;10.20;99.90
5055;DHT22;13829;48.990;8.346;2024-02-26T08:36:24;10.40;99.90
5055;DHT22;13829;48.990;8.346;2024-02-26T08:38:51;10.50;99.90
5055;DHT22;13829;48.990;8.346;2024-02-26T08:41:19;10.70;99.90
5055;DHT22;13829;48.990;8.346;2024-02-26T08:43:46;10.70;99.90
5055;DHT22;13829;48.990;8.346;2024-02-26T08:46:13;10.60;99.90
5055;DHT22;13829;48.990;8.346;2024-02-26T08:48:40;10.50;99.90
5055;DHT22;13829;48.990;8.346;2024-02-26T08:51:08;10.40;99.90
5055;DHT22;13829;48.990;8.346;2024-02-26T08:53:36;10.50;99.90
5055;DHT22;13829;48.990;8.346;2024-02-26T08:56:04;10.60;99.90
5055;DHT22;13829;48.990;8.346;2024-02-26T08:58:33;10.60;99.90
5055;DHT22;13829;48.990;8.346;2024-02-26T09:01:00;10.60;99.90
5055;DHT22;13829;48.990;8.346;2024-02-26T09:03:26;10.70;99.90
5055;DHT22;13829;48.990;8.346;2024-02-26T09:05:54;10.80;99.90
5055;DHT22;13829;48.990;8.346;2024-02-26T09:08:22;10.80;99.90
5055;DHT22;13829;48.990;8.346;2024-02-26T09:10:49;10.90;99.90
5055;DHT22;13829;48.990;8.346;2024-02-26T09:13:17;11.00;99.90
5055;DHT22;13829;48.990;8.346;2024-02-26T09:15:46;11.00;99.90
5055;DHT22;13829;48.990;8.346;2024-02-26T09:18:13;11.10;99.90
5055;DHT22;13829;48.990;8.346;2024-02-26T09:20:40;10.80;99.90
5055;DHT22;13829;48.990;8.346;2024-02-26T09:23:07;10.90;99.90
5055;DHT22;13829;48.990;8.346;2024-02-26T09:25:35;10.90;99.90
5055;DHT22;13829;48.990;8.346;2024-02-26T09:28:02;10.90;99.90
5055;DHT22;13829;48.990;8.346;2024-02-26T09:30:30;11.00;99.90
5055;DHT22;13829;48.990;8.346;2024-02-26T09:32:58;11.10;99.90
5055;DHT22;13829;48.990;8.346;2024-02-26T09:35:25;11.20;99.90
5055;DHT22;13829;48.990;8.346;2024-02-26T09:37:52;11.10;99.90
5055;DHT22;13829;48.990;8.346;2024-02-26T09:40:20;11.20;99.90
5055;DHT22;13829;48.990;8.346;2024-02-26T09:42:47;11.20;99.90
5055;DHT22;13829;48.990;8.346;2024-02-26T09:45:21;11.20;99.90
5055;DHT22;13829;48.990;8.346;2024-02-26T09:47:55;11.30;99.90
5055;DHT22;13829;48.990;8.346;2024-02-26T09:50:24;11.50;99.90
5055;DHT22;13829;48.990;8.346;2024-02-26T09:52:51;11.60;99.90
5055;DHT22;13829;48.990;8.346;2024-02-26T09:55:19;11.70;99.90
5055;DHT22;13829;48.990;8.346;2024-02-26T09:57:46;11.90;99.90
5055;DHT22;13829;48.990;8.346;2024-02-26T10:00:17;11.90;99.90
5055;DHT22;13829;48.990;8.346;2024-02-26T10:02:46;12.00;99.90
5055;DHT22;13829;48.990;8.346;2024-02-26T10:05:17;12.10;99.90
5055;DHT22;13829;48.990;8.346;2024-02-26T10:07:45;12.10;99.90
5055;DHT22;13829;48.990;8.346;2024-02-26T10:10:13;12.10;99.90
5055;DHT22;13829;48.990;8.346;2024-02-26T10:12:41;12.10;99.90
5055;DHT22;13829;48.990;8.346;2024-02-26T10:15:09;12.40;99.90
5055;DHT22;13829;48.990;8.346;2024-02-26T10:17:36;12.60;99.90
5055;DHT22;13829;48.990;8.346;2024-02-26T10:20:12;12.60;99.90
5055;DHT22;13829;48.990;8.346;2024-02-26T10:22:43;12.50;99.90
5055;DHT22;13829;48.990;8.346;2024-02-26T10:25:10;12.40;99.90
5055;DHT22;13829;48.990;8.346;2024-02-26T10:27:37;12.40;99.90
5055;DHT22;13829;48.990;8.346;2024-02-26T10:30:16;12.30;99.90
5055;DHT22;13829;48.990;8.346;2024-02-26T10:32:45;12.20;99.90
5055;DHT22;13829;48.990;8.346;2024-02-26T10:35:13;12.30;99.90
5055;DHT22;13829;48.990;8.346;2024-02-26T10:37:41;12.40;99.90
5055;DHT22;13829;48.990;8.346;2024-02-26T10:40:10;12.30;99.90
5055;DHT22;13829;48.990;8.346;2024-02-26T10:42:37;12.40;99.90
5055;DHT22;13829;48.990;8.346;2024-02-26T10:45:05;12.40;99.90
5055;DHT22;13829;48.990;8.346;2024-02-26T10:47:34;12.50;99.90
5055;DHT22;13829;48.990;8.346;2024-02-26T10:50:02;12.50;99.90
5055;DHT22;13829;48.990;8.346;2024-02-26T10:52:32;12.50;99.90
5055;DHT22;13829;48.990;8.346;2024-02-26T10:55:03;12.40;99.90
5055;DHT22;13829;48.990;8.346;2024-02-26T10:57:34;12.50;99.90
5055;DHT22;13829;48.990;8.346;2024-02-26T11:00:05;12.60;99.90
5055;DHT22;13829;48.990;8.346;2024-02-26T11:02:38;12.70;99.90
5055;DHT22;13829;48.990;8.346;2024-02-26T11:05:07;12.90;99.90
5055;DHT22;13829;48.990;8.346;2024-02-26T11:07:35;12.90;99.90
5055;DHT22;13829;48.990;8.346;2024-02-26T11:10:05;12.90;99.90
5055;DHT22;13829;48.990;8.346;2024-02-26T11:12:34;13.00;99.90
5055;DHT22;13829;48.990;8.346;2024-02-26T11:15:03;12.90;99.90
5055;DHT22;13829;48.990;8.346;2024-02-26T11:17:31;12.90;99.90
5055;DHT22;13829;48.990;8.346;2024-02-26T11:20:00;12.90;99.90
5055;DHT22;13829;48.990;8.346;2024-02-26T11:22:28;12.90;99.90
5055;DHT22;13829;48.990;8.346;2024-02-26T11:24:56;12.90;99.90
5055;DHT22;13829;48.990;8.346;2024-02-26T11:27:31;12.90;99.90
5055;DHT22;13829;48.990;8.346;2024-02-26T11:30:02;12.80;99.90
5055;DHT22;13829;48.990;8.346;2024-02-26T11:32:31;12.60;99.90
5055;DHT22;13829;48.990;8.346;2024-02-26T11:35:00;12.70;99.90
5055;DHT22;13829;48.990;8.346;2024-02-26T11:37:28;12.90;99.90
5055;DHT22;13829;48.990;8.346;2024-02-26T11:39:55;13.00;99.90
5055;DHT22;13829;48.990;8.346;2024-02-26T11:42:27;13.10;99.90
5055;DHT22;13829;48.990;8.346;2024-02-26T11:44:55;13.20;99.90
5055;DHT22;13829;48.990;8.346;2024-02-26T11:47:27;13.30;99.90
5055;DHT22;13829;48.990;8.346;2024-02-26T11:49:54;13.30;99.90
5055;DHT22;13829;48.990;8.346;2024-02-26T11:52:21;13.40;99.90
5055;DHT22;13829;48.990;8.346;2024-02-26T11:54:49;13.60;99.90
5055;DHT22;13829;48.990;8.346;2024-02-26T11:57:25;13.70;99.90
5055;DHT22;13829;48.990;8.346;2024-02-26T11:59:54;13.50;99.90
5055;DHT22;13829;48.990;8.346;2024-02-26T12:02:44;13.60;99.90
5055;DHT22;13829;48.990;8.346;2024-02-26T12:05:13;13.70;99.90
5055;DHT22;13829;48.990;8.346;2024-02-26T12:07:44;13.90;99.90
5055;DHT22;13829;48.990;8.346;2024-02-26T12:10:26;14.00;99.90
5055;DHT22;13829;48.990;8.346;2024-02-26T12:13:05;13.90;99.90
5055;DHT22;13829;48.990;8.346;2024-02-26T12:15:36;13.90;99.90
5055;DHT22;13829;48.990;8.346;2024-02-26T12:18:06;14.00;99.90
5055;DHT22;13829;48.990;8.346;2024-02-26T12:20:35;14.00;99.90
5055;DHT22;13829;48.990;8.346;2024-02-26T12:23:03;13.90;99.90
5055;DHT22;13829;48.990;8.346;2024-02-26T12:25:32;13.90;99.90
5055;DHT22;13829;48.990;8.346;2024-02-26T12:28:01;13.80;99.90
5055;DHT22;13829;48.990;8.346;2024-02-26T12:30:30;13.80;99.90
5055;DHT22;13829;48.990;8.346;2024-02-26T12:32:58;13.90;99.90
5055;DHT22;13829;48.990;8.346;2024-02-26T12:35:26;14.00;99.90
5055;DHT22;13829;48.990;8.346;2024-02-26T12:37:54;14.10;99.90
5055;DHT22;13829;48.990;8.346;2024-02-26T12:40:22;14.00;99.90
5055;DHT22;13829;48.990;8.346;2024-02-26T12:42:49;14.00;99.90
5055;DHT22;13829;48.990;8.346;2024-02-26T12:45:20;14.10;99.90
5055;DHT22;13829;48.990;8.346;2024-02-26T12:47:47;14.20;99.90
5055;DHT22;13829;48.990;8.346;2024-02-26T12:50:15;14.00;99.90
5055;DHT22;13829;48.990;8.346;2024-02-26T12:52:44;13.90;99.90
5055;DHT22;13829;48.990;8.346;2024-02-26T12:55:14;13.80;99.90
5055;DHT22;13829;48.990;8.346;2024-02-26T12:57:43;13.90;99.90
5055;DHT22;13829;48.990;8.346;2024-02-26T13:00:13;13.80;99.90
5055;DHT22;13829;48.990;8.346;2024-02-26T13:02:44;13.80;99.90
5055;DHT22;13829;48.990;8.346;2024-02-26T13:05:13;14.00;99.90
5055;DHT22;13829;48.990;8.346;2024-02-26T13:07:41;14.20;99.90
5055;DHT22;13829;48.990;8.346;2024-02-26T13:10:10;14.30;99.90
5055;DHT22;13829;48.990;8.346;2024-02-26T13:12:42;14.40;99.90
5055;DHT22;13829;48.990;8.346;2024-02-26T13:15:15;14.50;99.90
5055;DHT22;13829;48.990;8.346;2024-02-26T13:17:45;14.60;99.90
5055;DHT22;13829;48.990;8.346;2024-02-26T13:20:12;14.70;99.90
5055;DHT22;13829;48.990;8.346;2024-02-26T13:22:51;14.90;99.90
5055;DHT22;13829;48.990;8.346;2024-02-26T13:25:20;14.90;99.90
5055;DHT22;13829;48.990;8.346;2024-02-26T13:27:47;15.00;99.90
5055;DHT22;13829;48.990;8.346;2024-02-26T13:30:14;15.00;99.90
5055;DHT22;13829;48.990;8.346;2024-02-26T13:32:41;15.00;99.80
5055;DHT22;13829;48.990;8.346;2024-02-26T13:35:12;15.00;99.90
5055;DHT22;13829;48.990;8.346;2024-02-26T13:37:40;15.00;99.90
5055;DHT22;13829;48.990;8.346;2024-02-26T13:40:08;14.80;99.10
5055;DHT22;13829;48.990;8.346;2024-02-26T13:42:36;14.70;99.40
5055;DHT22;13829;48.990;8.346;2024-02-26T13:45:04;14.70;99.60
5055;DHT22;13829;48.990;8.346;2024-02-26T13:47:32;14.80;99.80
5055;DHT22;13829;48.990;8.346;2024-02-26T13:49:59;14.90;99.80
5055;DHT22;13829;48.990;8.346;2024-02-26T13:52:28;15.00;99.90
5055;DHT22;13829;48.990;8.346;2024-02-26T13:54:57;14.90;99.60
5055;DHT22;13829;48.990;8.346;2024-02-26T13:57:25;14.80;99.30
5055;DHT22;13829;48.990;8.346;2024-02-26T13:59:52;14.80;99.60
5055;DHT22;13829;48.990;8.346;2024-02-26T14:02:19;14.80;99.60
5055;DHT22;13829;48.990;8.346;2024-02-26T14:04:46;14.80;99.30
5055;DHT22;13829;48.990;8.346;2024-02-26T14:07:13;14.70;99.10
5055;DHT22;13829;48.990;8.346;2024-02-26T14:09:43;14.60;99.20
5055;DHT22;13829;48.990;8.346;2024-02-26T14:12:11;14.60;99.40
5055;DHT22;13829;48.990;8.346;2024-02-26T14:14:38;14.40;99.30
5055;DHT22;13829;48.990;8.346;2024-02-26T14:17:07;14.30;99.40
5055;DHT22;13829;48.990;8.346;2024-02-26T14:19:33;14.30;99.60
5055;DHT22;13829;48.990;8.346;2024-02-26T14:22:00;14.20;99.90
5055;DHT22;13829;48.990;8.346;2024-02-26T14:24:28;14.20;99.90
5055;DHT22;13829;48.990;8.346;2024-02-26T14:26:56;14.20;99.90
5055;DHT22;13829;48.990;8.346;2024-02-26T14:29:23;14.30;99.80
5055;DHT22;13829;48.990;8.346;2024-02-26T14:31:50;14.30;99.90
5055;DHT22;13829;48.990;8.346;2024-02-26T14:34:17;14.30;99.90
5055;DHT22;13829;48.990;8.346;2024-02-26T14:36:44;14.40;99.90
5055;DHT22;13829;48.990;8.346;2024-02-26T14:39:12;14.40;99.90
5055;DHT22;13829;48.990;8.346;2024-02-26T14:41:39;14.40;99.90
5055;DHT22;13829;48.990;8.346;2024-02-26T14:44:08;14.50;99.70
5055;DHT22;13829;48.990;8.346;2024-02-26T14:46:36;14.50;99.90
5055;DHT22;13829;48.990;8.346;2024-02-26T14:49:03;14.50;99.60
5055;DHT22;13829;48.990;8.346;2024-02-26T14:51:30;14.50;99.40
5055;DHT22;13829;48.990;8.346;2024-02-26T14:53:57;14.50;99.30
5055;DHT22;13829;48.990;8.346;2024-02-26T14:56:26;14.50;99.40
5055;DHT22;13829;48.990;8.346;2024-02-26T14:58:53;14.40;99.30
5055;DHT22;13829;48.990;8.346;2024-02-26T15:01:23;14.40;99.20
5055;DHT22;13829;48.990;8.346;2024-02-26T15:03:50;14.40;99.20
5055;DHT22;13829;48.990;8.346;2024-02-26T15:06:17;14.40;99.20
5055;DHT22;13829;48.990;8.346;2024-02-26T15:08:44;14.40;99.20
5055;DHT22;13829;48.990;8.346;2024-02-26T15:11:11;14.40;99.30
5055;DHT22;13829;48.990;8.346;2024-02-26T15:13:38;14.40;99.40
5055;DHT22;13829;48.990;8.346;2024-02-26T15:16:06;14.40;99.30
5055;DHT22;13829;48.990;8.346;2024-02-26T15:18:36;14.40;99.30
5055;DHT22;13829;48.990;8.346;2024-02-26T15:21:04;14.50;99.40
5055;DHT22;13829;48.990;8.346;2024-02-26T15:23:32;14.40;99.40
5055;DHT22;13829;48.990;8.346;2024-02-26T15:26:00;14.50;99.40
5055;DHT22;13829;48.990;8.346;2024-02-26T15:28:28;14.40;99.40
5055;DHT22;13829;48.990;8.346;2024-02-26T15:30:55;14.40;99.20
5055;DHT22;13829;48.990;8.346;2024-02-26T15:33:23;14.40;99.60
5055;DHT22;13829;48.990;8.346;2024-02-26T15:35:51;14.40;99.70
5055;DHT22;13829;48.990;8.346;2024-02-26T15:38:18;14.50;99.50
5055;DHT22;13829;48.990;8.346;2024-02-26T15:40:45;14.40;99.50
5055;DHT22;13829;48.990;8.346;2024-02-26T15:43:12;14.40;99.10
5055;DHT22;13829;48.990;8.346;2024-02-26T15:45:40;14.30;99.30
5055;DHT22;13829;48.990;8.346;2024-02-26T15:48:07;14.20;99.60
5055;DHT22;13829;48.990;8.346;2024-02-26T15:50:35;14.20;99.70
5055;DHT22;13829;48.990;8.346;2024-02-26T15:53:04;14.10;99.90
5055;DHT22;13829;48.990;8.346;2024-02-26T15:55:31;14.00;99.90
5055;DHT22;13829;48.990;8.346;2024-02-26T15:57:58;14.00;99.90